Time;durP1;ratioP1;P1;durP2;ratioP2;P2;SDS_P1;SDS_P2;PMS_P1;PMS_P2;Temp;Humidity;BMP_temperature;BMP_pressure;BME280_temperature;BME280_humidity;BME280_pressure;Samples;Min_cycle;Max_cycle;Signal;HPM_P1;HPM_P2
2022/12/08 00:00:48;;;;;;;5.18;1.42;;;2.20;99.90;;;;;;5055250;28;20049;-61
2022/12/08 00:03:15;;;;;;;4.22;1.10;;;2.20;99.90;;;;;;5054845;28;20067;-62
2022/12/08 00:11:16;;;;;;;2.63;0.90;;;2.30;99.90;;;;;;5053658;28;20049;-62
2022/12/08 00:13:43;;;;;;;2.58;0.90;;;2.30;99.90;;;;;;5053991;28;20045;-63
2022/12/08 00:16:11;;;;;;;4.82;1.30;;;2.40;99.90;;;;;;5053691;28;20508;-62
2022/12/08 00:18:38;;;;;;;3.05;1.42;;;2.40;99.90;;;;;;5073827;28;20046;-62
2022/12/08 00:21:06;;;;;;;6.82;1.17;;;2.70;99.90;;;;;;5072842;28;20457;-61
2022/12/08 00:23:33;;;;;;;3.25;1.40;;;2.50;99.90;;;;;;5059784;28;20447;-62
2022/12/08 00:26:03;;;;;;;6.90;1.40;;;2.50;99.90;;;;;;5055102;28;20048;-62
2022/12/08 00:28:30;;;;;;;3.85;1.27;;;2.50;99.90;;;;;;5053650;28;20787;-61
2022/12/08 00:30:57;;;;;;;4.40;1.50;;;2.50;99.90;;;;;;5053891;28;20081;-61
2022/12/08 00:33:24;;;;;;;4.43;1.40;;;2.40;99.90;;;;;;5054843;28;20052;-62
2022/12/08 00:35:51;;;;;;;2.30;1.27;;;2.40;99.90;;;;;;5052710;28;20053;-62
2022/12/08 00:38:19;;;;;;;2.65;1.30;;;2.40;99.90;;;;;;5054138;28;20041;-62
2022/12/08 00:40:46;;;;;;;2.83;1.30;;;2.40;99.90;;;;;;5051395;28;20057;-62
2022/12/08 00:43:14;;;;;;;8.95;1.80;;;2.40;99.90;;;;;;5053979;28;20489;-61
2022/12/08 00:45:41;;;;;;;4.50;1.42;;;2.30;99.90;;;;;;5054425;28;20063;-62
2022/12/08 00:48:07;;;;;;;7.55;1.92;;;2.30;99.90;;;;;;5056039;28;20493;-62
2022/12/08 00:50:34;;;;;;;5.47;1.50;;;2.30;99.90;;;;;;5072935;28;20560;-62
2022/12/08 00:53:01;;;;;;;4.32;1.58;;;2.30;99.90;;;;;;5074008;28;20055;-62
2022/12/08 00:55:30;;;;;;;7.85;1.55;;;2.30;99.90;;;;;;5055535;28;20481;-62
2022/12/08 00:57:56;;;;;;;4.85;1.20;;;2.20;99.90;;;;;;5053498;28;20045;-62
2022/12/08 01:00:23;;;;;;;2.28;1.25;;;2.20;99.90;;;;;;5055132;28;20068;-62
2022/12/08 01:02:50;;;;;;;5.10;1.30;;;2.20;99.90;;;;;;5073849;28;20048;-62
2022/12/08 01:05:17;;;;;;;2.83;1.40;;;2.20;99.90;;;;;;5054685;28;20449;-62
2022/12/08 01:07:44;;;;;;;3.55;1.30;;;2.10;99.90;;;;;;5073853;28;20048;-62
2022/12/08 01:10:11;;;;;;;3.40;1.40;;;2.20;99.90;;;;;;5054942;28;20063;-63
2022/12/08 01:12:39;;;;;;;2.22;1.10;;;2.10;99.90;;;;;;5054657;28;20037;-62
2022/12/08 01:15:07;;;;;;;3.40;1.30;;;2.10;99.90;;;;;;5073248;28;20044;-62
2022/12/08 01:17:34;;;;;;;3.13;1.65;;;2.20;99.90;;;;;;5073323;28;20797;-62
2022/12/08 01:20:01;;;;;;;3.72;1.30;;;2.20;99.90;;;;;;5072609;28;20045;-63
2022/12/08 01:22:28;;;;;;;2.25;1.25;;;2.20;99.90;;;;;;5055143;28;20048;-62
2022/12/08 01:24:55;;;;;;;6.70;1.50;;;2.20;99.90;;;;;;5055213;28;20052;-62
2022/12/08 01:27:22;;;;;;;3.40;1.40;;;2.20;99.90;;;;;;5054751;28;20048;-63
2022/12/08 01:29:50;;;;;;;3.53;1.27;;;2.10;99.90;;;;;;5073166;28;20067;-63
2022/12/08 01:32:17;;;;;;;3.70;1.30;;;2.20;99.90;;;;;;5052660;28;20045;-63
2022/12/08 01:34:44;;;;;;;4.50;1.33;;;2.10;99.90;;;;;;5054093;28;20056;-62
2022/12/08 01:37:12;;;;;;;2.13;1.20;;;2.20;99.90;;;;;;5052937;28;20538;-63
2022/12/08 01:39:40;;;;;;;3.97;1.20;;;2.20;99.90;;;;;;5072301;28;20052;-62
2022/12/08 01:42:16;;;;;;;2.92;1.30;;;2.20;99.90;;;;;;5070777;28;20049;-61
2022/12/08 01:44:57;;;;;;;1.67;0.90;;;2.20;99.90;;;;;;5073040;28;20466;-62
2022/12/08 01:47:29;;;;;;;2.55;1.27;;;2.30;99.90;;;;;;5056180;28;20049;-63
2022/12/08 01:49:56;;;;;;;2.63;1.05;;;2.30;99.90;;;;;;5055229;28;20054;-63
2022/12/08 01:52:26;;;;;;;1.80;0.90;;;2.30;99.90;;;;;;5072531;28;20553;-63
2022/12/08 01:54:56;;;;;;;4.30;1.00;;;2.30;99.90;;;;;;5072167;28;20080;-61
2022/12/08 01:57:27;;;;;;;3.40;1.20;;;2.40;99.90;;;;;;5071106;28;20109;-63
2022/12/08 02:00:00;;;;;;;1.88;1.08;;;2.40;99.90;;;;;;5070409;28;20053;-62
2022/12/08 02:02:32;;;;;;;1.83;0.90;;;2.40;99.90;;;;;;5054608;28;20051;-62
2022/12/08 02:05:00;;;;;;;2.97;1.30;;;2.40;99.90;;;;;;5072168;28;20055;-61
2022/12/08 02:07:27;;;;;;;3.35;1.30;;;2.30;99.90;;;;;;5054978;28;20396;-63
2022/12/08 02:09:55;;;;;;;6.97;1.40;;;2.30;99.90;;;;;;5071451;28;20044;-63
2022/12/08 02:12:22;;;;;;;3.25;1.15;;;2.30;99.90;;;;;;5072158;28;20443;-63
2022/12/08 02:14:49;;;;;;;4.72;1.83;;;2.30;99.90;;;;;;5054208;28;20059;-63
2022/12/08 02:17:39;;;;;;;2.17;1.27;;;2.30;99.90;;;;;;5054200;28;20070;-62
2022/12/08 02:20:30;;;;;;;2.70;1.10;;;2.40;99.90;;;;;;5053352;28;20055;-62
2022/12/08 02:23:05;;;;;;;2.42;1.23;;;2.40;99.90;;;;;;5070860;28;20401;-63
2022/12/08 02:25:41;;;;;;;9.18;6.78;;;2.50;99.90;;;;;;5071063;28;20052;-62
2022/12/08 02:28:28;;;;;;;4.35;2.45;;;3.00;99.90;;;;;;5054469;28;20412;-62
2022/12/08 02:31:03;;;;;;;9.63;4.30;;;2.50;99.90;;;;;;5052531;28;20052;-61
2022/12/08 02:34:09;;;;;;;5.45;3.67;;;2.50;99.90;;;;;;5070784;28;20055;-61
2022/12/08 02:36:43;;;;;;;3.38;1.40;;;2.50;99.90;;;;;;5069913;28;20044;-62
2022/12/08 02:39:22;;;;;;;3.60;0.80;;;2.50;99.90;;;;;;5053748;28;20062;-62
2022/12/08 02:41:57;;;;;;;1.27;0.90;;;2.40;99.90;;;;;;5071867;28;20045;-62
2022/12/08 02:44:29;;;;;;;1.15;0.65;;;2.40;99.90;;;;;;5070147;28;20435;-63
2022/12/08 02:46:59;;;;;;;1.48;0.80;;;2.40;99.90;;;;;;5071679;28;20482;-63
2022/12/08 02:49:30;;;;;;;1.90;0.90;;;2.40;99.90;;;;;;5053828;28;20511;-63
2022/12/08 02:52:05;;;;;;;2.83;0.73;;;2.40;99.90;;;;;;5068753;28;20048;-63
2022/12/08 02:54:33;;;;;;;1.88;0.80;;;2.30;99.90;;;;;;5051875;28;20102;-62
2022/12/08 02:57:15;;;;;;;2.70;0.70;;;2.30;99.90;;;;;;5053142;28;20052;-63
2022/12/08 03:00:00;;;;;;;2.42;0.70;;;2.30;99.90;;;;;;5053665;28;20056;-62
2022/12/08 03:02:48;;;;;;;4.18;0.70;;;2.20;99.90;;;;;;5053520;28;20052;-63
2022/12/08 03:05:31;;;;;;;1.02;0.70;;;2.20;99.90;;;;;;5071214;28;20047;-63
2022/12/08 03:08:03;;;;;;;1.15;0.70;;;2.20;99.90;;;;;;5071894;28;20044;-63
2022/12/08 03:10:35;;;;;;;1.17;0.65;;;2.20;99.90;;;;;;5053067;28;20097;-62
2022/12/08 03:13:07;;;;;;;3.08;0.70;;;2.20;99.90;;;;;;5070897;28;20053;-63
2022/12/08 03:15:37;;;;;;;2.20;0.95;;;2.20;99.90;;;;;;5071573;28;20067;-63
2022/12/08 03:18:06;;;;;;;3.28;0.77;;;2.10;99.90;;;;;;5069301;28;20544;-62
2022/12/08 03:20:35;;;;;;;1.40;0.90;;;2.20;99.90;;;;;;5053069;28;20052;-63
2022/12/08 03:23:08;;;;;;;1.17;0.80;;;2.20;99.90;;;;;;5053372;28;20519;-62
2022/12/08 03:25:40;;;;;;;2.17;0.80;;;2.20;99.90;;;;;;5070960;28;20102;-62
2022/12/08 03:28:07;;;;;;;2.63;1.20;;;2.20;99.90;;;;;;5052078;28;20045;-63
2022/12/08 03:30:39;;;;;;;1.38;0.82;;;2.20;99.90;;;;;;5073572;28;20040;-63
2022/12/08 03:33:13;;;;;;;1.90;1.20;;;2.20;99.90;;;;;;5056437;28;20052;-63
2022/12/08 03:35:43;;;;;;;2.60;1.20;;;2.30;99.90;;;;;;5075139;28;20048;-63
2022/12/08 03:38:13;;;;;;;5.50;1.35;;;2.30;99.90;;;;;;5057225;28;20139;-63
2022/12/08 03:40:40;;;;;;;3.63;1.37;;;2.30;99.90;;;;;;5072067;28;20044;-63
2022/12/08 03:43:08;;;;;;;2.33;1.33;;;2.40;99.90;;;;;;5075459;28;20048;-62
2022/12/08 03:45:35;;;;;;;2.97;1.30;;;2.40;99.90;;;;;;5057041;28;20048;-63
2022/12/08 03:48:02;;;;;;;3.58;1.35;;;2.40;99.90;;;;;;5063470;28;20492;-63
2022/12/08 03:50:29;;;;;;;2.88;0.98;;;2.30;99.90;;;;;;5074684;28;20051;-62
2022/12/08 03:52:57;;;;;;;2.25;1.30;;;2.30;99.90;;;;;;5057002;28;20500;-63
2022/12/08 03:55:24;;;;;;;4.03;1.00;;;2.30;99.90;;;;;;5074001;28;20059;-62
2022/12/08 03:57:51;;;;;;;2.97;1.10;;;2.20;99.90;;;;;;5057353;28;20381;-62
2022/12/08 04:00:18;;;;;;;2.85;0.98;;;2.20;99.90;;;;;;5074009;28;20428;-63
2022/12/08 04:02:45;;;;;;;3.08;0.98;;;2.30;99.90;;;;;;5074773;28;20056;-63
2022/12/08 04:05:12;;;;;;;2.83;1.00;;;2.20;99.90;;;;;;5074582;28;20059;-62
2022/12/08 04:07:39;;;;;;;3.15;1.30;;;2.20;99.90;;;;;;5056635;28;20056;-62
2022/12/08 04:10:09;;;;;;;1.98;1.02;;;2.20;99.90;;;;;;5074289;28;20381;-62
2022/12/08 04:12:36;;;;;;;1.83;1.20;;;2.20;99.90;;;;;;5074399;28;20047;-62
2022/12/08 04:15:03;;;;;;;2.53;0.85;;;2.20;99.90;;;;;;5074030;28;20416;-62
2022/12/08 04:17:29;;;;;;;1.63;0.90;;;2.20;99.90;;;;;;5074370;28;20048;-62
2022/12/08 04:19:56;;;;;;;3.13;0.95;;;2.30;99.90;;;;;;5057103;28;20049;-63
2022/12/08 04:22:23;;;;;;;1.75;0.90;;;2.30;99.90;;;;;;5071313;28;20389;-62
2022/12/08 04:24:50;;;;;;;3.55;1.00;;;2.30;99.90;;;;;;5056661;28;20056;-62
2022/12/08 04:27:18;;;;;;;2.45;0.98;;;2.30;99.90;;;;;;5074290;28;20056;-62
2022/12/08 04:29:45;;;;;;;1.55;0.85;;;2.30;99.90;;;;;;5055620;28;20063;-61
2022/12/08 04:32:12;;;;;;;2.42;1.00;;;2.30;99.90;;;;;;5047472;28;20053;-62
2022/12/08 04:34:39;;;;;;;3.50;0.80;;;2.30;99.90;;;;;;5045734;28;20124;-63
2022/12/08 04:37:06;;;;;;;2.20;0.82;;;2.30;99.90;;;;;;5051214;28;20060;-63
2022/12/08 04:39:33;;;;;;;1.30;0.77;;;2.30;99.90;;;;;;5055186;28;20044;-63
2022/12/08 04:42:00;;;;;;;4.15;0.90;;;2.30;99.90;;;;;;5051634;28;20048;-63
2022/12/08 04:44:28;;;;;;;2.92;0.90;;;2.30;99.90;;;;;;5055904;28;20489;-63
2022/12/08 04:46:55;;;;;;;3.03;1.00;;;2.30;99.90;;;;;;5051384;28;20041;-62
2022/12/08 04:49:22;;;;;;;1.60;0.80;;;2.30;99.90;;;;;;5067489;28;20527;-62
2022/12/08 04:51:49;;;;;;;2.97;1.00;;;2.30;99.90;;;;;;5051380;28;20049;-62
2022/12/08 04:54:16;;;;;;;2.08;1.00;;;2.30;99.90;;;;;;5050872;28;20049;-63
2022/12/08 04:56:43;;;;;;;5.05;1.02;;;2.30;99.90;;;;;;5064328;28;20055;-62
2022/12/08 04:59:10;;;;;;;2.95;1.40;;;2.30;99.90;;;;;;5069108;28;20513;-62
2022/12/08 05:01:38;;;;;;;6.32;1.48;;;2.30;99.90;;;;;;5052483;28;20057;-62
2022/12/08 05:04:05;;;;;;;2.13;0.90;;;2.30;99.90;;;;;;5065627;28;20095;-62
2022/12/08 05:06:32;;;;;;;1.02;0.60;;;2.30;99.90;;;;;;5067121;28;20543;-62
2022/12/08 05:08:59;;;;;;;2.63;0.80;;;2.30;99.90;;;;;;5049224;28;20060;-62
2022/12/08 05:11:25;;;;;;;4.53;0.90;;;2.20;99.90;;;;;;5066544;28;20045;-63
2022/12/08 05:13:52;;;;;;;1.30;0.70;;;2.30;99.90;;;;;;5066454;28;20053;-62
2022/12/08 05:16:19;;;;;;;1.88;0.70;;;2.30;99.90;;;;;;5069900;28;20523;-63
2022/12/08 05:18:47;;;;;;;2.63;0.70;;;2.30;99.90;;;;;;5050846;28;20056;-62
2022/12/08 05:21:14;;;;;;;2.30;0.80;;;2.30;99.90;;;;;;5067599;28;20103;-62
2022/12/08 05:23:41;;;;;;;2.38;0.80;;;2.30;99.90;;;;;;5068655;28;20041;-62
2022/12/08 05:26:08;;;;;;;1.63;0.90;;;2.30;99.90;;;;;;5048454;28;20044;-61
2022/12/08 05:28:35;;;;;;;5.03;0.75;;;2.30;99.90;;;;;;5066798;28;20045;-62
2022/12/08 05:31:02;;;;;;;3.17;0.90;;;2.30;99.90;;;;;;5051555;28;20477;-62
2022/12/08 05:33:29;;;;;;;1.80;0.90;;;2.30;99.90;;;;;;5049086;28;20041;-62
2022/12/08 05:35:57;;;;;;;2.88;0.77;;;2.30;99.90;;;;;;5051512;28;20148;-62
2022/12/08 05:38:24;;;;;;;1.17;0.68;;;2.30;99.90;;;;;;5064259;28;20048;-62
2022/12/08 05:40:51;;;;;;;3.05;1.00;;;2.20;99.90;;;;;;5049765;28;20063;-62
2022/12/08 05:43:18;;;;;;;1.95;0.82;;;2.20;99.90;;;;;;5046544;28;20532;-62
2022/12/08 05:45:45;;;;;;;3.75;1.10;;;2.20;99.90;;;;;;5052158;28;20040;-61
2022/12/08 05:48:12;;;;;;;1.58;0.90;;;2.10;99.90;;;;;;5065785;28;20059;-62
2022/12/08 05:50:39;;;;;;;2.63;0.82;;;2.00;99.90;;;;;;5049289;28;20045;-62
2022/12/08 05:53:07;;;;;;;3.75;1.02;;;2.00;99.90;;;;;;5063681;28;20055;-62
2022/12/08 05:55:34;;;;;;;1.55;0.90;;;2.00;99.90;;;;;;5044473;28;20044;-63
2022/12/08 05:58:01;;;;;;;1.73;0.80;;;1.90;99.90;;;;;;5064442;28;20045;-62
2022/12/08 06:00:28;;;;;;;3.50;1.25;;;1.80;99.90;;;;;;5048652;28;20115;-61
2022/12/08 06:02:55;;;;;;;1.83;1.00;;;1.80;99.90;;;;;;5068985;28;20036;-61
2022/12/08 06:05:22;;;;;;;5.78;1.20;;;1.80;99.90;;;;;;5067285;28;20378;-60
2022/12/08 06:07:49;;;;;;;2.50;1.20;;;1.90;99.90;;;;;;5046494;28;20060;-61
2022/12/08 06:10:17;;;;;;;2.80;1.13;;;1.70;99.90;;;;;;5070148;28;20056;-62
2022/12/08 06:12:44;;;;;;;2.05;0.90;;;1.80;99.90;;;;;;5067472;28;20496;-62
2022/12/08 06:15:11;;;;;;;1.38;0.90;;;1.70;99.90;;;;;;5066100;28;20044;-62
2022/12/08 06:17:38;;;;;;;1.88;1.20;;;1.70;99.90;;;;;;5051555;28;20051;-62
2022/12/08 06:20:07;;;;;;;3.25;0.80;;;1.60;99.90;;;;;;5070370;28;20400;-62
2022/12/08 06:22:33;;;;;;;1.88;0.95;;;1.60;99.90;;;;;;5050522;28;20103;-61
2022/12/08 06:25:00;;;;;;;2.17;1.30;;;1.60;99.90;;;;;;5051714;28;20055;-61
2022/12/08 06:27:29;;;;;;;1.30;0.82;;;1.60;99.90;;;;;;5066478;28;20052;-61
2022/12/08 06:29:56;;;;;;;1.10;0.80;;;1.60;99.90;;;;;;5065184;28;20052;-61
2022/12/08 06:32:23;;;;;;;2.72;0.90;;;1.50;99.90;;;;;;5069413;28;20055;-62
2022/12/08 06:34:50;;;;;;;1.90;1.08;;;1.50;99.90;;;;;;5067026;28;20044;-61
2022/12/08 06:37:18;;;;;;;2.90;1.20;;;1.50;99.90;;;;;;5046672;28;20062;-60
2022/12/08 06:39:45;;;;;;;1.25;0.88;;;1.40;99.90;;;;;;5069790;28;20045;-60
2022/12/08 06:44:58;;;;;;;2.58;1.20;;;1.40;99.90;;;;;;5047586;28;20380;-60
2022/12/08 06:47:24;;;;;;;2.42;1.10;;;1.30;99.90;;;;;;5064631;28;20075;-61
2022/12/08 06:49:51;;;;;;;3.15;1.00;;;1.30;99.90;;;;;;5068282;28;20056;-61
2022/12/08 06:52:18;;;;;;;1.98;1.10;;;1.30;99.90;;;;;;5065309;28;20141;-61
2022/12/08 06:54:45;;;;;;;2.08;1.08;;;1.20;99.90;;;;;;5065136;28;20496;-61
2022/12/08 06:57:12;;;;;;;1.85;1.00;;;1.20;99.90;;;;;;5047151;28;20060;-61
2022/12/08 06:59:39;;;;;;;1.55;1.10;;;1.20;99.90;;;;;;5049795;28;20056;-61
2022/12/08 07:02:07;;;;;;;2.95;1.00;;;1.20;99.90;;;;;;5048231;28;20044;-62
2022/12/08 07:04:34;;;;;;;1.60;0.95;;;1.20;99.90;;;;;;5049995;28;20045;-61
2022/12/08 07:07:01;;;;;;;5.32;1.10;;;1.10;99.90;;;;;;5051781;28;20044;-62
2022/12/08 07:09:28;;;;;;;2.03;1.00;;;1.10;99.90;;;;;;5069973;28;20044;-62
2022/12/08 07:11:55;;;;;;;2.25;1.00;;;1.10;99.90;;;;;;5072664;28;20051;-61
2022/12/08 07:14:23;;;;;;;2.20;1.10;;;1.00;99.90;;;;;;5069912;28;20511;-62
2022/12/08 07:16:50;;;;;;;2.75;1.10;;;0.90;99.90;;;;;;5051814;28;20106;-61
2022/12/08 07:19:19;;;;;;;2.90;1.83;;;0.80;99.90;;;;;;5050946;28;20060;-61
2022/12/08 07:21:46;;;;;;;2.00;1.20;;;0.80;99.90;;;;;;5068461;28;20045;-61
2022/12/08 07:24:13;;;;;;;2.38;1.27;;;0.80;99.90;;;;;;5051969;28;20056;-61
2022/12/08 07:26:40;;;;;;;2.97;1.38;;;0.80;99.90;;;;;;5054976;28;20048;-61
2022/12/08 07:29:07;;;;;;;2.33;1.10;;;0.70;99.90;;;;;;5071024;28;20045;-62
2022/12/08 07:31:34;;;;;;;2.70;1.50;;;0.70;99.90;;;;;;5055884;28;20498;-62
2022/12/08 07:34:01;;;;;;;2.63;1.30;;;0.70;99.90;;;;;;5056482;28;20040;-62
2022/12/08 07:36:31;;;;;;;2.70;1.58;;;0.70;99.90;;;;;;5056684;28;20053;-63
2022/12/08 07:38:58;;;;;;;3.45;1.40;;;0.60;99.90;;;;;;5074371;28;20044;-63
2022/12/08 07:41:26;;;;;;;7.40;1.95;;;0.60;99.90;;;;;;5056714;28;20060;-62
2022/12/08 07:43:53;;;;;;;3.97;1.90;;;0.60;99.90;;;;;;5056738;28;20056;-62
2022/12/08 07:46:22;;;;;;;2.42;1.50;;;0.50;99.90;;;;;;5056171;28;20051;-62
2022/12/08 07:48:49;;;;;;;5.70;1.63;;;0.50;99.90;;;;;;5069903;28;20055;-62
2022/12/08 07:51:17;;;;;;;4.15;1.60;;;0.40;99.90;;;;;;5074542;28;20511;-62
2022/12/08 07:53:50;;;;;;;3.22;1.65;;;0.40;99.90;;;;;;5072116;28;20154;-62
2022/12/08 07:56:17;;;;;;;2.15;1.55;;;0.50;99.90;;;;;;5072913;28;20059;-62
2022/12/08 07:58:45;;;;;;;2.92;1.52;;;0.40;99.90;;;;;;5073946;28;20519;-63
2022/12/08 08:01:21;;;;;;;5.82;1.50;;;0.40;99.90;;;;;;5062092;28;20059;-62
2022/12/08 08:03:48;;;;;;;2.83;1.65;;;0.40;99.90;;;;;;5072549;28;20057;-62
2022/12/08 08:06:15;;;;;;;3.83;2.13;;;0.40;99.90;;;;;;5074364;28;20478;-62
2022/12/08 08:08:42;;;;;;;3.88;1.55;;;0.30;99.90;;;;;;5073043;28;20044;-62
2022/12/08 08:11:10;;;;;;;5.80;2.20;;;0.30;99.90;;;;;;5059823;28;20515;-62
2022/12/08 08:13:37;;;;;;;3.47;1.70;;;0.30;99.90;;;;;;5072789;28;20097;-62
2022/12/08 08:16:05;;;;;;;4.85;2.70;;;0.30;99.90;;;;;;5072043;28;20051;-62
2022/12/08 08:18:33;;;;;;;3.38;1.75;;;0.30;99.90;;;;;;5059410;28;20110;-62
2022/12/08 08:21:01;;;;;;;3.60;1.98;;;0.40;99.90;;;;;;5073182;28;20052;-62
2022/12/08 08:23:28;;;;;;;5.90;2.00;;;0.50;99.90;;;;;;5059799;28;20080;-62
2022/12/08 08:25:58;;;;;;;4.82;1.80;;;0.70;99.90;;;;;;5073768;28;20045;-62
2022/12/08 08:28:27;;;;;;;3.13;1.90;;;0.80;99.90;;;;;;5072889;28;20495;-62
2022/12/08 08:30:53;;;;;;;8.77;2.80;;;0.90;99.90;;;;;;5061036;28;20052;-62
2022/12/08 08:33:21;;;;;;;18.13;3.63;;;1.10;99.90;;;;;;5073685;28;20047;-62
2022/12/08 08:35:48;;;;;;;6.28;2.25;;;1.20;99.90;;;;;;5060972;28;20500;-62
2022/12/08 08:38:15;;;;;;;3.95;1.73;;;1.30;99.90;;;;;;5073284;28;20103;-62
2022/12/08 08:40:41;;;;;;;3.63;1.70;;;1.40;99.90;;;;;;5061140;28;20057;-62
2022/12/08 08:43:08;;;;;;;8.18;1.67;;;1.40;99.90;;;;;;5072656;28;20040;-62
2022/12/08 08:45:37;;;;;;;4.97;1.65;;;1.50;99.90;;;;;;5073595;28;20048;-63
2022/12/08 08:48:04;;;;;;;5.20;1.60;;;1.70;99.90;;;;;;5059617;28;20115;-63
2022/12/08 08:50:31;;;;;;;5.50;1.83;;;1.70;99.90;;;;;;5071407;28;20036;-63
2022/12/08 08:52:58;;;;;;;4.65;1.80;;;1.80;99.90;;;;;;5071564;28;20115;-62
2022/12/08 08:55:24;;;;;;;7.22;1.75;;;1.90;99.90;;;;;;5058909;28;20446;-62
2022/12/08 08:57:51;;;;;;;5.07;1.67;;;1.80;99.90;;;;;;5072641;28;20041;-62
2022/12/08 09:00:19;;;;;;;4.93;1.90;;;1.90;99.90;;;;;;5072947;28;20555;-62
2022/12/08 09:02:47;;;;;;;11.50;2.63;;;2.10;99.90;;;;;;5059458;28;20051;-63
2022/12/08 09:05:14;;;;;;;7.50;1.88;;;2.50;99.90;;;;;;5073176;28;20044;-63
2022/12/08 09:07:41;;;;;;;8.05;1.80;;;3.70;99.90;;;;;;5063753;28;20051;-63
2022/12/08 09:10:09;;;;;;;4.40;1.63;;;5.40;99.90;;;;;;5072468;28;20052;-63
2022/12/08 09:12:36;;;;;;;4.72;1.63;;;6.30;99.90;;;;;;5073273;28;20051;-63
2022/12/08 09:15:03;;;;;;;4.75;1.75;;;6.50;99.90;;;;;;5071163;28;20045;-63
2022/12/08 09:17:30;;;;;;;5.55;1.70;;;6.60;99.90;;;;;;5071083;28;20511;-63
2022/12/08 09:20:00;;;;;;;2.60;1.35;;;7.20;99.90;;;;;;5071309;28;20052;-62
2022/12/08 09:22:27;;;;;;;4.78;1.70;;;7.90;99.90;;;;;;5072949;28;20051;-63
2022/12/08 09:24:54;;;;;;;3.83;1.42;;;8.10;99.90;;;;;;5070815;28;20396;-63
2022/12/08 09:27:21;;;;;;;5.60;1.50;;;7.70;99.90;;;;;;5072355;28;20092;-62
2022/12/08 09:29:47;;;;;;;4.93;1.60;;;7.00;99.90;;;;;;5071047;28;20056;-62
2022/12/08 09:32:14;;;;;;;4.00;1.88;;;6.40;99.90;;;;;;5070462;28;20044;-63
2022/12/08 09:34:41;;;;;;;6.05;1.77;;;5.90;99.90;;;;;;5070938;28;20500;-63
2022/12/08 09:37:10;;;;;;;5.32;1.95;;;5.30;99.90;;;;;;5072564;28;20052;-62
2022/12/08 09:39:36;;;;;;;4.90;1.52;;;4.90;99.90;;;;;;5072221;28;20056;-63
2022/12/08 09:42:05;;;;;;;5.45;1.83;;;4.70;99.90;;;;;;5054573;28;20504;-63
2022/12/08 09:44:54;;;;;;;4.85;1.75;;;4.50;99.90;;;;;;5072713;28;20043;-63
2022/12/08 09:47:23;;;;;;;7.22;1.60;;;4.10;99.90;;;;;;5053576;28;20167;-61
2022/12/08 09:49:59;;;;;;;3.55;1.40;;;4.10;99.90;;;;;;5072793;28;20040;-61
2022/12/08 09:52:32;;;;;;;5.45;2.00;;;4.00;99.90;;;;;;5070425;28;20052;-61
2022/12/08 09:55:03;;;;;;;3.42;1.27;;;4.00;99.90;;;;;;5072504;28;20068;-62
2022/12/08 09:57:30;;;;;;;9.23;2.42;;;4.00;99.90;;;;;;5072634;28;20045;-62
2022/12/08 10:00:03;;;;;;;9.23;1.83;;;4.00;99.90;;;;;;5053808;28;20067;-61
2022/12/08 10:02:30;;;;;;;3.53;1.25;;;3.90;99.90;;;;;;5054420;28;20076;-62
2022/12/08 10:04:59;;;;;;;2.45;1.20;;;4.90;99.90;;;;;;5072607;28;20036;-62
2022/12/08 10:07:37;;;;;;;4.88;1.40;;;4.00;99.90;;;;;;5053650;28;20071;-63
2022/12/08 10:10:12;;;;;;;8.20;2.30;;;3.90;99.90;;;;;;5053963;28;20098;-63
2022/12/08 10:12:46;;;;;;;12.90;3.15;;;4.00;99.90;;;;;;5053960;28;20056;-63
2022/12/08 10:15:29;;;;;;;6.82;1.88;;;3.90;99.90;;;;;;5053402;28;20040;-62
2022/12/08 10:18:00;;;;;;;3.15;1.33;;;4.00;99.90;;;;;;5054152;28;20497;-63
2022/12/08 10:20:35;;;;;;;;;;;4.00;99.90;;;;;;5071629;28;20048;-63
2022/12/08 10:23:09;;;;;;;11.18;1.50;;;3.90;99.90;;;;;;5053959;28;20479;-63
2022/12/08 10:25:41;;;;;;;5.97;1.67;;;3.90;99.90;;;;;;5054260;28;20052;-63
2022/12/08 10:28:09;;;;;;;11.15;2.30;;;3.70;99.90;;;;;;5053239;28;20055;-63
2022/12/08 10:30:36;;;;;;;6.88;2.75;;;3.70;99.90;;;;;;5071761;28;20072;-63
2022/12/08 10:33:03;;;;;;;4.47;1.65;;;3.60;99.90;;;;;;5042934;28;20045;-63
2022/12/08 10:35:44;;;;;;;4.95;1.52;;;3.60;99.90;;;;;;5043644;28;20555;-63
2022/12/08 10:38:18;;;;;;;;;;;3.70;99.90;;;;;;5044794;28;20090;-63
2022/12/08 10:40:46;;;;;;;4.20;1.00;;;4.10;99.90;;;;;;5051759;28;20035;-63
2022/12/08 10:43:15;;;;;;;2.47;1.00;;;5.30;99.90;;;;;;5048820;28;20048;-63
2022/12/08 10:45:42;;;;;;;1.60;0.95;;;6.00;99.90;;;;;;5044995;28;20048;-63
2022/12/08 10:48:16;;;;;;;4.75;1.40;;;5.90;99.90;;;;;;5063119;28;20060;-63
2022/12/08 10:50:45;;;;;;;4.38;1.20;;;6.00;99.90;;;;;;5068017;28;20048;-63
2022/12/08 10:53:15;;;;;;;2.53;1.20;;;6.10;99.90;;;;;;5074877;28;20058;-63
2022/12/08 10:55:45;;;;;;;4.05;1.30;;;6.10;99.90;;;;;;5066328;28;20500;-63
2022/12/08 10:58:32;;;;;;;4.63;1.10;;;6.10;99.90;;;;;;5065526;28;20045;-63
2022/12/08 11:01:04;;;;;;;1.25;0.70;;;5.80;99.90;;;;;;5051920;28;20408;-63
2022/12/08 11:03:33;;;;;;;4.70;1.10;;;5.50;99.90;;;;;;5054628;28;20052;-63
2022/12/08 11:06:09;;;;;;;3.28;0.80;;;5.40;99.90;;;;;;5065550;28;20045;-63
2022/12/08 11:08:46;;;;;;;2.88;1.08;;;5.30;99.90;;;;;;5065402;28;20044;-63
2022/12/08 11:11:15;;;;;;;3.22;0.90;;;5.90;99.90;;;;;;5065276;28;20492;-63
2022/12/08 11:13:42;;;;;;;3.13;1.00;;;6.40;99.90;;;;;;5045349;28;20148;-63
2022/12/08 11:16:13;;;;;;;3.67;1.08;;;6.70;99.90;;;;;;5067706;28;20052;-63
2022/12/08 11:18:42;;;;;;;2.58;1.17;;;6.70;99.90;;;;;;5070474;28;20063;-63
2022/12/08 11:21:15;;;;;;;2.55;1.05;;;7.40;99.90;;;;;;5041558;28;20061;-63
2022/12/08 11:23:46;;;;;;;2.28;1.27;;;8.50;99.90;;;;;;5069719;28;20048;-63
2022/12/08 11:26:17;;;;;;;;;;;8.90;99.90;;;;;;5071801;28;20040;-63
2022/12/08 11:28:44;;;;;;;3.78;1.00;;;9.50;99.90;;;;;;5071424;28;19943;-63
2022/12/08 11:31:22;;;;;;;3.65;0.90;;;10.40;99.90;;;;;;5070592;28;20051;-63
2022/12/08 11:33:51;;;;;;;4.88;0.90;;;11.80;99.90;;;;;;5071245;28;20044;-61
2022/12/08 11:36:22;;;;;;;3.22;1.02;;;12.30;99.90;;;;;;5052932;28;20079;-63
2022/12/08 11:38:52;;;;;;;3.50;2.13;;;12.20;99.90;;;;;;5052815;28;20063;-63
2022/12/08 11:41:23;;;;;;;5.80;3.28;;;11.80;99.90;;;;;;5071226;28;20060;-63
2022/12/08 11:43:56;;;;;;;6.03;2.40;;;11.10;99.90;;;;;;5071311;28;20044;-63
2022/12/08 11:46:25;;;;;;;1.77;0.90;;;10.20;99.90;;;;;;5052577;28;20114;-63
2022/12/08 11:48:57;;;;;;;1.95;0.77;;;9.10;99.90;;;;;;5071171;28;20060;-63
2022/12/08 11:51:31;;;;;;;6.00;1.10;;;8.50;99.90;;;;;;5072765;28;20559;-63
2022/12/08 11:54:11;;;;;;;1.70;0.90;;;7.90;99.90;;;;;;5056782;28;20044;-63
2022/12/08 11:56:44;;;;;;;2.40;0.90;;;7.60;99.90;;;;;;5074755;28;20067;-63
2022/12/08 11:59:18;;;;;;;3.30;0.80;;;7.10;99.90;;;;;;5074486;28;20635;-63
2022/12/08 12:01:45;;;;;;;2.70;0.88;;;7.00;99.90;;;;;;5074748;28;20068;-63
2022/12/08 12:04:19;;;;;;;1.83;0.65;;;6.80;99.90;;;;;;5056727;28;20048;-63
2022/12/08 12:07:11;;;;;;;2.60;0.77;;;6.60;99.90;;;;;;5055805;28;20093;-63
2022/12/08 12:09:56;;;;;;;2.17;0.73;;;7.40;99.90;;;;;;5073255;28;20044;-63
2022/12/08 12:12:35;;;;;;;1.63;0.82;;;9.40;99.90;;;;;;5056201;28;20057;-63
2022/12/08 12:15:40;;;;;;;1.85;0.65;;;10.90;99.90;;;;;;5056682;28;20058;-63
2022/12/08 12:18:16;;;;;;;1.70;0.80;;;12.50;99.90;;;;;;5056430;28;20381;-61
2022/12/08 12:20:53;;;;;;;7.05;0.80;;;13.50;99.90;;;;;;5055769;28;20496;-62
2022/12/08 12:23:23;;;;;;;2.33;0.82;;;14.10;99.90;;;;;;5054418;28;20078;-62
2022/12/08 12:25:55;;;;;;;1.50;0.70;;;13.40;99.90;;;;;;5056511;28;20040;-62
2022/12/08 12:28:26;;;;;;;1.58;0.60;;;12.80;99.90;;;;;;5073716;28;20048;-63
2022/12/08 12:30:56;;;;;;;;;;;12.60;99.90;;;;;;5074929;28;20048;-62
2022/12/08 12:33:24;;;;;;;1.83;0.70;;;13.30;99.90;;;;;;5056165;28;19966;-63
2022/12/08 12:35:52;;;;;;;1.98;0.60;;;14.10;99.10;;;;;;5055348;28;20389;-64
2022/12/08 12:41:09;;;;;;;1.05;0.65;;;14.30;98.60;;;;;;5055667;28;20392;-62
2022/12/08 12:43:39;;;;;;;4.07;0.75;;;14.10;99.90;;;;;;5055642;28;21577;-63
2022/12/08 12:46:42;;;;;;;1.77;0.90;;;14.50;99.70;;;;;;5056200;28;20055;-62
2022/12/08 12:49:47;;;;;;;1.65;0.60;;;15.80;96.80;;;;;;5051402;28;20047;-62
2022/12/08 12:52:41;;;;;;;0.88;0.60;;;15.80;94.40;;;;;;5035864;28;20103;-62
2022/12/08 12:55:50;;;;;;;1.40;0.70;;;16.40;94.40;;;;;;5035424;28;20072;-63
2022/12/08 12:58:37;;;;;;;1.67;0.70;;;16.00;92.50;;;;;;4998175;28;20103;-63
2022/12/08 13:01:48;;;;;;;2.55;0.70;;;16.40;92.80;;;;;;5053862;28;20048;-63
2022/12/08 13:04:16;;;;;;;1.45;0.60;;;15.50;93.60;;;;;;5053348;28;20485;-63
2022/12/08 13:06:46;;;;;;;1.05;0.52;;;14.00;96.70;;;;;;5053873;28;20363;-63
2022/12/08 13:09:28;;;;;;;3.15;1.02;;;12.80;99.00;;;;;;5053004;28;20048;-63
2022/12/08 13:11:58;;;;;;;1.38;0.70;;;11.60;99.90;;;;;;5053572;28;20041;-64
2022/12/08 13:14:33;;;;;;;1.33;0.70;;;10.70;99.90;;;;;;5050786;28;20041;-64
2022/12/08 13:17:04;;;;;;;1.52;0.70;;;10.00;99.90;;;;;;5033187;28;20053;-63
2022/12/08 13:19:32;;;;;;;2.95;0.95;;;9.30;99.90;;;;;;5035618;28;20053;-63
2022/12/08 13:22:00;;;;;;;1.70;0.50;;;8.90;99.90;;;;;;5053327;28;20459;-63
2022/12/08 13:24:33;;;;;;;3.20;1.33;;;8.60;99.90;;;;;;5034659;28;20070;-63